Time;durP1;ratioP1;P1;durP2;ratioP2;P2;SDS_P1;SDS_P2;PMS_P1;PMS_P2;Temp;Humidity;BMP_temperature;BMP_pressure;BME280_temperature;BME280_humidity;BME280_pressure;Samples;Min_cycle;Max_cycle;Signal;HPM_P1;HPM_P2
2023/04/23 00:03:41;;;;;;;;;;;21.60;51.70;;;;;;4746714;55;20184;-32
2023/04/23 00:08:45;;;;;;;;;;;21.60;51.60;;;;;;4746271;58;20298;-37
2023/04/23 00:13:48;;;;;;;;;;;21.60;51.60;;;;;;4791994;55;20184;-28
2023/04/23 00:18:49;;;;;;;;;;;21.60;51.60;;;;;;4746568;58;20314;-30
2023/04/23 00:23:49;;;;;;;;;;;21.60;51.50;;;;;;4814350;55;20084;-31
2023/04/23 00:28:50;;;;;;;;;;;21.60;51.50;;;;;;4768282;55;20306;-31
2023/04/23 00:33:51;;;;;;;;;;;21.60;51.50;;;;;;4762748;55;20330;-28
2023/04/23 00:38:51;;;;;;;;;;;21.60;51.50;;;;;;4816479;55;20370;-27
2023/04/23 00:43:52;;;;;;;;;;;21.60;51.50;;;;;;4894398;55;20112;-37
2023/04/23 00:48:53;;;;;;;;;;;21.60;51.50;;;;;;4839169;55;20279;-28
2023/04/23 00:53:55;;;;;;;;;;;21.60;51.40;;;;;;4763769;55;20056;-30
2023/04/23 00:58:56;;;;;;;;;;;21.60;51.40;;;;;;4746853;58;20389;-31
2023/04/23 01:03:57;;;;;;;;;;;21.60;51.40;;;;;;4791394;55;20127;-28
2023/04/23 01:08:58;;;;;;;;;;;21.60;51.30;;;;;;4832652;55;20072;-27
2023/04/23 01:13:59;;;;;;;;;;;21.60;51.40;;;;;;4796012;55;20088;-28
2023/04/23 01:19:01;;;;;;;;;;;21.60;51.90;;;;;;4786250;55;20394;-31
2023/04/23 01:24:04;;;;;;;;;;;21.60;51.30;;;;;;4746562;58;20279;-29
2023/04/23 01:29:05;;;;;;;;;;;21.60;51.30;;;;;;4785760;55;20164;-28
2023/04/23 01:34:06;;;;;;;;;;;21.60;51.30;;;;;;4746368;58;20312;-27
2023/04/23 01:39:08;;;;;;;;;;;21.60;51.30;;;;;;4747900;55;20064;-28
2023/04/23 01:44:09;;;;;;;;;;;21.60;51.30;;;;;;4752511;55;20406;-29
2023/04/23 01:49:10;;;;;;;;;;;21.60;51.20;;;;;;4786517;55;20327;-29
2023/04/23 01:54:11;;;;;;;;;;;21.60;51.20;;;;;;4817772;55;20302;-27
2023/04/23 01:59:12;;;;;;;;;;;21.60;51.20;;;;;;4746545;55;20303;-30
2023/04/23 02:04:13;;;;;;;;;;;21.60;51.20;;;;;;4910371;55;20113;-32
2023/04/23 02:09:14;;;;;;;;;;;21.60;51.20;;;;;;4764143;55;20089;-31
2023/04/23 02:14:14;;;;;;;;;;;21.60;51.20;;;;;;4845569;55;20168;-31
2023/04/23 02:19:15;;;;;;;;;;;21.60;51.10;;;;;;4759485;55;20116;-33
2023/04/23 02:24:16;;;;;;;;;;;21.60;51.20;;;;;;4774339;55;20128;-30
2023/04/23 02:29:16;;;;;;;;;;;21.60;51.10;;;;;;4762102;55;20096;-29
2023/04/23 02:34:17;;;;;;;;;;;21.60;51.10;;;;;;4798100;55;20413;-30
2023/04/23 02:39:18;;;;;;;;;;;21.60;51.10;;;;;;4749045;55;20394;-28
2023/04/23 02:44:19;;;;;;;;;;;21.60;51.10;;;;;;4814397;55;20310;-28
2023/04/23 02:49:19;;;;;;;;;;;21.60;51.00;;;;;;4746489;58;20335;-29
2023/04/23 02:54:20;;;;;;;;;;;21.50;50.90;;;;;;4828287;55;20140;-27
2023/04/23 02:59:21;;;;;;;;;;;21.60;50.90;;;;;;4790401;55;20132;-28
2023/04/23 03:04:21;;;;;;;;;;;21.60;51.00;;;;;;4777873;55;20112;-31
2023/04/23 03:09:22;;;;;;;;;;;21.60;50.90;;;;;;4752933;55;20065;-28
2023/04/23 03:14:23;;;;;;;;;;;21.60;50.90;;;;;;4746868;58;20072;-30
2023/04/23 03:19:23;;;;;;;;;;;21.50;50.80;;;;;;4860193;55;20065;-29
2023/04/23 03:24:24;;;;;;;;;;;21.50;50.80;;;;;;4747211;55;20294;-29
2023/04/23 03:29:27;;;;;;;;;;;21.50;50.70;;;;;;4746503;58;20922;-27
2023/04/23 03:34:27;;;;;;;;;;;21.50;50.80;;;;;;4747164;55;20295;-30
2023/04/23 03:39:30;;;;;;;;;;;21.50;50.70;;;;;;4782823;55;20176;-29
2023/04/23 03:44:30;;;;;;;;;;;21.50;50.70;;;;;;4746758;55;20112;-31
2023/04/23 03:49:31;;;;;;;;;;;21.50;50.60;;;;;;4746233;58;20315;-31
2023/04/23 03:54:31;;;;;;;;;;;21.50;50.60;;;;;;4777247;55;20104;-29
2023/04/23 03:59:32;;;;;;;;;;;21.50;50.70;;;;;;4746751;55;20127;-27
2023/04/23 04:04:33;;;;;;;;;;;21.50;50.60;;;;;;4837122;55;20168;-28
2023/04/23 04:09:36;;;;;;;;;;;21.50;50.50;;;;;;4774110;55;20108;-30
2023/04/23 04:14:37;;;;;;;;;;;21.50;50.50;;;;;;4898880;55;20286;-30
2023/04/23 04:19:37;;;;;;;;;;;21.50;50.50;;;;;;4767929;55;20120;-29
2023/04/23 04:24:40;;;;;;;;;;;21.50;50.50;;;;;;4773948;55;20421;-30
2023/04/23 04:29:41;;;;;;;;;;;21.50;50.40;;;;;;4794420;55;20298;-30
2023/04/23 04:34:42;;;;;;;;;;;21.50;50.40;;;;;;4910437;55;20306;-31
2023/04/23 04:39:42;;;;;;;;;;;21.50;50.40;;;;;;4761986;55;20104;-29
2023/04/23 04:44:43;;;;;;;;;;;21.50;50.40;;;;;;4746868;58;20342;-31
2023/04/23 04:49:44;;;;;;;;;;;21.50;50.40;;;;;;4772779;55;20061;-27
2023/04/23 04:54:47;;;;;;;;;;;21.50;50.40;;;;;;4751896;55;20294;-29
2023/04/23 04:59:48;;;;;;;;;;;21.50;50.40;;;;;;4790680;55;20116;-29
2023/04/23 05:04:49;;;;;;;;;;;21.50;50.60;;;;;;4857547;55;20291;-28
2023/04/23 05:09:49;;;;;;;;;;;21.50;50.30;;;;;;4746065;58;20143;-32
2023/04/23 05:14:50;;;;;;;;;;;21.50;50.40;;;;;;4746253;58;20084;-27
2023/04/23 05:19:51;;;;;;;;;;;21.50;50.40;;;;;;4818563;55;20246;-28
2023/04/23 05:24:51;;;;;;;;;;;21.50;50.30;;;;;;4800249;55;20153;-30
2023/04/23 05:29:52;;;;;;;;;;;21.50;50.20;;;;;;4802215;55;20064;-26
2023/04/23 05:34:53;;;;;;;;;;;21.50;50.20;;;;;;4768744;55;20052;-30
2023/04/23 05:39:53;;;;;;;;;;;21.50;50.20;;;;;;4777645;55;20295;-27
2023/04/23 05:44:54;;;;;;;;;;;21.50;50.40;;;;;;4847611;55;20124;-29
2023/04/23 05:49:58;;;;;;;;;;;21.50;50.20;;;;;;4746173;58;20068;-32
2023/04/23 05:54:59;;;;;;;;;;;21.50;50.20;;;;;;4746602;56;20064;-25
2023/04/23 05:59:59;;;;;;;;;;;21.50;50.20;;;;;;4841681;55;20113;-28
2023/04/23 06:05:00;;;;;;;;;;;21.50;50.10;;;;;;4767514;55;20080;-29
2023/04/23 06:10:03;;;;;;;;;;;21.50;50.20;;;;;;4792104;55;20292;-29
2023/04/23 06:15:05;;;;;;;;;;;21.50;50.10;;;;;;4746661;55;20330;-32
2023/04/23 06:20:07;;;;;;;;;;;21.50;50.20;;;;;;4746648;58;20605;-32
2023/04/23 06:25:08;;;;;;;;;;;21.50;50.10;;;;;;4896574;55;20318;-31
2023/04/23 06:30:09;;;;;;;;;;;21.50;50.10;;;;;;4746223;58;20083;-30
2023/04/23 06:35:10;;;;;;;;;;;21.50;50.10;;;;;;4761662;55;20552;-35
2023/04/23 06:40:11;;;;;;;;;;;21.50;50.10;;;;;;4746535;58;20135;-28
2023/04/23 06:45:12;;;;;;;;;;;21.50;50.10;;;;;;4746572;55;20136;-30
2023/04/23 06:50:13;;;;;;;;;;;21.50;50.60;;;;;;4792538;55;20389;-29
2023/04/23 06:55:13;;;;;;;;;;;21.50;50.10;;;;;;4806964;55;20605;-29
2023/04/23 07:00:14;;;;;;;;;;;21.50;50.10;;;;;;4746486;55;20314;-32
2023/04/23 07:05:17;;;;;;;;;;;21.50;50.20;;;;;;4746287;58;20120;-32
2023/04/23 07:10:18;;;;;;;;;;;21.50;50.10;;;;;;4746876;58;20347;-28
2023/04/23 07:15:19;;;;;;;;;;;21.50;50.10;;;;;;4810377;55;20120;-25
2023/04/23 07:20:19;;;;;;;;;;;21.50;50.70;;;;;;4777494;55;20318;-29
2023/04/23 07:25:21;;;;;;;;;;;21.50;50.10;;;;;;4784223;55;20368;-32
2023/04/23 07:30:22;;;;;;;;;;;21.50;50.10;;;;;;4808400;55;20343;-33
2023/04/23 07:35:23;;;;;;;;;;;21.50;50.10;;;;;;4777009;55;20093;-29
2023/04/23 07:40:24;;;;;;;;;;;21.50;50.10;;;;;;4746733;55;20092;-27
2023/04/23 07:45:24;;;;;;;;;;;21.50;50.00;;;;;;4760880;55;20080;-28
2023/04/23 07:50:25;;;;;;;;;;;21.50;50.00;;;;;;4831621;55;20283;-29
2023/04/23 07:55:26;;;;;;;;;;;21.50;50.00;;;;;;4770953;55;20144;-28
2023/04/23 08:00:26;;;;;;;;;;;21.50;50.10;;;;;;4792517;55;20065;-33
2023/04/23 08:05:27;;;;;;;;;;;21.50;50.00;;;;;;4780074;55;20113;-29
2023/04/23 08:10:27;;;;;;;;;;;21.50;50.00;;;;;;4772100;55;20299;-29
2023/04/23 08:15:28;;;;;;;;;;;21.50;50.00;;;;;;4793109;55;20057;-30
2023/04/23 08:20:30;;;;;;;;;;;21.50;50.10;;;;;;4746399;58;20121;-29
2023/04/23 08:25:31;;;;;;;;;;;21.50;50.10;;;;;;4780581;55;20382;-27
2023/04/23 08:30:32;;;;;;;;;;;21.50;50.10;;;;;;4763575;55;20294;-32
2023/04/23 08:35:33;;;;;;;;;;;21.50;50.00;;;;;;4783999;55;20076;-28
2023/04/23 08:40:36;;;;;;;;;;;21.50;50.00;;;;;;4746565;58;20068;-26
2023/04/23 08:45:40;;;;;;;;;;;21.50;50.30;;;;;;4786605;55;20292;-27
2023/04/23 08:50:44;;;;;;;;;;;21.50;50.00;;;;;;4773461;55;20311;-30
2023/04/23 08:55:47;;;;;;;;;;;21.50;50.00;;;;;;4781416;55;20279;-33
2023/04/23 09:00:49;;;;;;;;;;;21.50;50.00;;;;;;4746471;58;20072;-31
2023/04/23 09:05:50;;;;;;;;;;;21.50;50.00;;;;;;4763845;55;20335;-31
2023/04/23 09:10:51;;;;;;;;;;;21.50;50.00;;;;;;4826655;55;20056;-29
2023/04/23 09:15:52;;;;;;;;;;;21.50;50.10;;;;;;4828950;55;20592;-32
2023/04/23 09:20:52;;;;;;;;;;;21.50;50.10;;;;;;4866023;55;20340;-32
2023/04/23 09:25:55;;;;;;;;;;;21.50;50.20;;;;;;4827343;55;20391;-27
2023/04/23 09:30:55;;;;;;;;;;;21.50;50.10;;;;;;4750201;55;20393;-30
2023/04/23 09:35:56;;;;;;;;;;;21.50;50.10;;;;;;4746076;58;20116;-31
2023/04/23 09:40:57;;;;;;;;;;;21.60;50.20;;;;;;4755117;55;20347;-31
2023/04/23 09:45:57;;;;;;;;;;;21.60;50.20;;;;;;4805532;55;20060;-33
2023/04/23 09:51:01;;;;;;;;;;;21.60;50.20;;;;;;4752370;55;20117;-29
2023/04/23 09:56:01;;;;;;;;;;;21.60;50.30;;;;;;4753313;55;20359;-28
2023/04/23 10:01:06;;;;;;;;;;;21.60;50.20;;;;;;4746040;58;20172;-28
2023/04/23 10:06:07;;;;;;;;;;;21.50;50.20;;;;;;4768465;55;20124;-27
2023/04/23 10:11:07;;;;;;;;;;;21.60;50.30;;;;;;4771934;55;20307;-27
2023/04/23 10:16:09;;;;;;;;;;;21.60;50.30;;;;;;4782693;55;20056;-31
2023/04/23 10:21:11;;;;;;;;;;;21.60;50.40;;;;;;4781158;55;20360;-31
2023/04/23 10:26:13;;;;;;;;;;;21.50;50.40;;;;;;4763232;55;20302;-30
2023/04/23 10:31:14;;;;;;;;;;;21.60;50.40;;;;;;4747397;55;20092;-27
2023/04/23 10:36:16;;;;;;;;;;;21.60;50.40;;;;;;4761720;55;20346;-28
2023/04/23 10:41:18;;;;;;;;;;;21.60;50.40;;;;;;4749934;55;20132;-33
2023/04/23 10:46:29;;;;;;;;;;;21.60;50.40;;;;;;4747852;55;20100;-32
2023/04/23 10:51:36;;;;;;;;;;;21.60;50.40;;;;;;4747363;55;20332;-29
2023/04/23 10:56:37;;;;;;;;;;;21.60;50.40;;;;;;4746270;58;20291;-31
2023/04/23 11:01:38;;;;;;;;;;;21.60;50.50;;;;;;4801733;55;20152;-31
2023/04/23 11:06:53;;;;;;;;;;;21.60;51.20;;;;;;4746439;58;20251;-30
2023/04/23 11:11:56;;;;;;;;;;;21.60;50.60;;;;;;4746213;58;20277;-26
2023/04/23 11:16:57;;;;;;;;;;;21.60;50.60;;;;;;4781677;55;20433;-31
2023/04/23 11:22:02;;;;;;;;;;;21.60;50.60;;;;;;4746149;58;20068;-28
2023/04/23 11:27:07;;;;;;;;;;;21.60;50.80;;;;;;4809682;55;20332;-28
2023/04/23 11:32:14;;;;;;;;;;;21.60;50.70;;;;;;4756796;55;20088;-32
2023/04/23 11:37:16;;;;;;;;;;;21.60;50.80;;;;;;4832036;55;20072;-30
2023/04/23 11:42:19;;;;;;;;;;;21.60;50.80;;;;;;4838798;55;20057;-29
2023/04/23 11:47:20;;;;;;;;;;;21.60;50.80;;;;;;4824310;55;20263;-31
2023/04/23 11:52:20;;;;;;;;;;;21.60;50.90;;;;;;4761887;55;20366;-29
2023/04/23 11:57:21;;;;;;;;;;;21.60;50.90;;;;;;4752863;55;20327;-32
2023/04/23 12:02:24;;;;;;;;;;;21.60;50.90;;;;;;4815483;55;20310;-26
2023/04/23 12:07:31;;;;;;;;;;;21.60;50.90;;;;;;4795326;55;20076;-28
2023/04/23 12:12:33;;;;;;;;;;;21.60;51.10;;;;;;4821849;55;20068;-29
2023/04/23 12:17:34;;;;;;;;;;;21.60;51.00;;;;;;4768321;55;20314;-33
2023/04/23 12:22:35;;;;;;;;;;;21.60;51.10;;;;;;4787413;55;20275;-28
2023/04/23 12:27:42;;;;;;;;;;;21.60;51.10;;;;;;4750454;55;20109;-29
2023/04/23 12:32:43;;;;;;;;;;;21.60;51.30;;;;;;4766596;55;20303;-28
2023/04/23 12:37:44;;;;;;;;;;;21.60;51.10;;;;;;4746340;58;20107;-27
2023/04/23 12:42:44;;;;;;;;;;;21.60;51.20;;;;;;4919276;55;20368;-29
2023/04/23 12:47:45;;;;;;;;;;;21.60;51.20;;;;;;4784129;55;20096;-27
2023/04/23 12:52:46;;;;;;;;;;;21.60;51.20;;;;;;4745646;58;20057;-27
2023/04/23 12:57:47;;;;;;;;;;;21.60;51.20;;;;;;4771355;55;20056;-27
2023/04/23 13:02:50;;;;;;;;;;;21.60;51.20;;;;;;4812705;55;20286;-28
2023/04/23 13:07:52;;;;;;;;;;;21.60;51.30;;;;;;4796479;55;20115;-32
2023/04/23 13:12:53;;;;;;;;;;;21.70;51.30;;;;;;4745622;58;20295;-30
2023/04/23 13:17:53;;;;;;;;;;;21.60;51.30;;;;;;4746170;58;20064;-28
2023/04/23 13:22:54;;;;;;;;;;;21.60;51.30;;;;;;4746588;58;20338;-30
2023/04/23 13:27:55;;;;;;;;;;;21.60;51.40;;;;;;4762309;55;20069;-29
2023/04/23 13:32:56;;;;;;;;;;;21.60;51.40;;;;;;4764499;55;20104;-25
2023/04/23 13:37:58;;;;;;;;;;;21.60;51.40;;;;;;4779786;55;20299;-29
2023/04/23 13:42:58;;;;;;;;;;;21.60;51.40;;;;;;4765937;55;20168;-29
2023/04/23 13:48:01;;;;;;;;;;;21.70;51.40;;;;;;4781116;55;20072;-32
2023/04/23 13:53:02;;;;;;;;;;;21.70;51.40;;;;;;4745453;58;20278;-27
2023/04/23 13:58:03;;;;;;;;;;;21.70;51.50;;;;;;4782390;55;20117;-29
2023/04/23 14:03:03;;;;;;;;;;;21.70;51.40;;;;;;4820301;55;20124;-29
2023/04/23 14:08:04;;;;;;;;;;;21.60;51.40;;;;;;4746553;58;20720;-29
2023/04/23 14:13:05;;;;;;;;;;;21.70;51.50;;;;;;4745471;59;20338;-31
2023/04/23 14:18:05;;;;;;;;;;;21.70;51.50;;;;;;4746319;58;20299;-30
2023/04/23 14:24:10;;;;;;;;;;;21.70;51.50;;;;;;4823874;55;20072;-29
2023/04/23 14:29:17;;;;;;;;;;;21.70;51.50;;;;;;4845738;55;20137;-29
2023/04/23 14:34:18;;;;;;;;;;;21.70;51.50;;;;;;4763277;55;20080;-28
2023/04/23 14:39:21;;;;;;;;;;;21.70;51.50;;;;;;4746863;58;20383;-28
2023/04/23 14:44:23;;;;;;;;;;;21.70;51.50;;;;;;4751053;55;20124;-27
2023/04/23 14:49:24;;;;;;;;;;;21.70;51.50;;;;;;4831841;55;20362;-27
2023/04/23 14:54:24;;;;;;;;;;;21.60;51.50;;;;;;4746785;58;20072;-26
2023/04/23 14:59:25;;;;;;;;;;;21.70;51.60;;;;;;4758149;55;20109;-29
2023/04/23 15:04:26;;;;;;;;;;;21.70;51.60;;;;;;4768374;55;20084;-27
2023/04/23 15:09:26;;;;;;;;;;;21.60;51.20;;;;;;4746902;58;20390;-28
2023/04/23 15:14:31;;;;;;;;;;;21.70;51.60;;;;;;4781165;55;20068;-27
2023/04/23 15:19:32;;;;;;;;;;;21.70;51.60;;;;;;4802363;55;20287;-29
2023/04/23 15:24:33;;;;;;;;;;;21.70;51.70;;;;;;4746468;58;20177;-27
2023/04/23 15:29:33;;;;;;;;;;;21.70;51.60;;;;;;4746994;55;20779;-28
2023/04/23 15:34:34;;;;;;;;;;;21.70;51.70;;;;;;4827211;55;20112;-26
2023/04/23 15:39:35;;;;;;;;;;;21.70;51.70;;;;;;4850724;55;20064;-26
2023/04/23 15:44:35;;;;;;;;;;;21.70;51.70;;;;;;4754726;55;20287;-28
2023/04/23 15:49:36;;;;;;;;;;;21.70;51.70;;;;;;4895498;55;20064;-27
2023/04/23 15:54:36;;;;;;;;;;;21.70;51.70;;;;;;4746849;58;20076;-29
2023/04/23 15:59:37;;;;;;;;;;;21.70;51.70;;;;;;4815754;55;20083;-29
2023/04/23 16:04:38;;;;;;;;;;;21.70;51.70;;;;;;4746714;58;20303;-28
2023/04/23 16:09:38;;;;;;;;;;;21.70;51.80;;;;;;4781427;55;20347;-31
2023/04/23 16:14:41;;;;;;;;;;;21.70;51.80;;;;;;4758614;55;20113;-28
2023/04/23 16:19:42;;;;;;;;;;;21.70;51.80;;;;;;4816864;55;20282;-27
2023/04/23 16:24:43;;;;;;;;;;;21.60;51.70;;;;;;4812503;55;20160;-28
2023/04/23 16:29:43;;;;;;;;;;;21.60;51.70;;;;;;4822403;55;20295;-29
2023/04/23 16:34:44;;;;;;;;;;;21.70;51.80;;;;;;4775860;55;20064;-28
2023/04/23 16:39:45;;;;;;;;;;;21.70;51.90;;;;;;4746857;58;20104;-31
2023/04/23 16:44:46;;;;;;;;;;;21.70;51.80;;;;;;4746464;58;20116;-28
2023/04/23 16:49:46;;;;;;;;;;;21.70;51.80;;;;;;4746283;58;20076;-26
2023/04/23 16:54:48;;;;;;;;;;;21.70;51.90;;;;;;4746660;58;20052;-26
2023/04/23 16:59:49;;;;;;;;;;;21.70;51.80;;;;;;4759013;55;20291;-29
2023/04/23 17:04:49;;;;;;;;;;;21.70;51.80;;;;;;4746403;58;20171;-28
2023/04/23 17:09:50;;;;;;;;;;;21.70;51.80;;;;;;4888294;55;20116;-31
2023/04/23 17:14:52;;;;;;;;;;;21.70;51.70;;;;;;4752534;55;20072;-30
2023/04/23 17:19:52;;;;;;;;;;;21.70;51.70;;;;;;4746339;58;20168;-27
2023/04/23 17:24:53;;;;;;;;;;;21.70;51.80;;;;;;4746467;58;20052;-29
2023/04/23 17:29:55;;;;;;;;;;;21.70;51.90;;;;;;4749480;55;20295;-32
2023/04/23 17:34:55;;;;;;;;;;;21.70;51.60;;;;;;4746494;55;20129;-32
2023/04/23 17:39:56;;;;;;;;;;;21.70;51.60;;;;;;4778164;55;20076;-30
2023/04/23 17:44:57;;;;;;;;;;;21.70;51.60;;;;;;4812757;55;20057;-30
2023/04/23 17:49:57;;;;;;;;;;;21.70;51.60;;;;;;4756384;55;20343;-32
2023/04/23 17:54:59;;;;;;;;;;;21.70;51.60;;;;;;4746384;58;20088;-31
2023/04/23 18:00:08;;;;;;;;;;;21.70;51.60;;;;;;4759535;55;20488;-28
2023/04/23 18:05:10;;;;;;;;;;;21.70;51.50;;;;;;4759940;55;20072;-30
2023/04/23 18:10:11;;;;;;;;;;;21.70;51.50;;;;;;4745898;58;20123;-29
2023/04/23 18:15:15;;;;;;;;;;;21.70;51.50;;;;;;4876029;55;20072;-31
2023/04/23 18:20:15;;;;;;;;;;;21.70;51.50;;;;;;4746671;58;20074;-28
2023/04/23 18:25:16;;;;;;;;;;;21.70;51.50;;;;;;4748692;55;20060;-29
2023/04/23 18:30:21;;;;;;;;;;;21.70;51.50;;;;;;4786978;55;20124;-28
2023/04/23 18:35:22;;;;;;;;;;;21.70;51.50;;;;;;4746564;58;20750;-29
2023/04/23 18:40:23;;;;;;;;;;;21.70;51.50;;;;;;4765747;55;20076;-29
2023/04/23 18:45:24;;;;;;;;;;;21.70;51.40;;;;;;4832121;55;20298;-29
2023/04/23 18:50:41;;;;;;;;;;;21.70;51.40;;;;;;4747924;55;20306;-31
2023/04/23 18:55:42;;;;;;;;;;;21.70;51.40;;;;;;4764254;55;20433;-28
2023/04/23 19:00:43;;;;;;;;;;;21.70;51.40;;;;;;4812921;55;20380;-27
2023/04/23 19:05:43;;;;;;;;;;;21.70;51.50;;;;;;4810530;55;20934;-32
2023/04/23 19:10:44;;;;;;;;;;;21.70;51.50;;;;;;4764000;55;20068;-31
2023/04/23 19:15:45;;;;;;;;;;;21.70;52.20;;;;;;4746604;58;20068;-28
2023/04/23 19:20:45;;;;;;;;;;;21.70;51.50;;;;;;4746370;58;20072;-27
2023/04/23 19:25:46;;;;;;;;;;;21.70;51.50;;;;;;4766597;55;20096;-30
2023/04/23 19:30:47;;;;;;;;;;;21.70;51.50;;;;;;4746257;58;20360;-28
2023/04/23 19:35:48;;;;;;;;;;;21.70;51.50;;;;;;4746513;58;20053;-27
2023/04/23 19:40:49;;;;;;;;;;;21.70;52.00;;;;;;4746714;58;20299;-23
2023/04/23 19:45:50;;;;;;;;;;;21.70;52.10;;;;;;4788616;55;20287;-28
2023/04/23 19:50:51;;;;;;;;;;;21.70;51.50;;;;;;4746084;58;20060;-27
2023/04/23 19:55:52;;;;;;;;;;;21.70;51.60;;;;;;4845708;55;20052;-28
2023/04/23 20:00:53;;;;;;;;;;;21.70;51.60;;;;;;4746797;58;20306;-26
2023/04/23 20:05:57;;;;;;;;;;;21.70;51.60;;;;;;4777702;55;20069;-29
2023/04/23 20:10:57;;;;;;;;;;;21.70;51.60;;;;;;4745952;58;20332;-28
2023/04/23 20:15:58;;;;;;;;;;;21.70;51.60;;;;;;4755368;55;20068;-29
2023/04/23 20:20:58;;;;;;;;;;;21.70;51.60;;;;;;4847775;55;20113;-27
2023/04/23 20:25:59;;;;;;;;;;;21.70;51.60;;;;;;4746385;58;20072;-27
2023/04/23 20:31:00;;;;;;;;;;;21.70;51.60;;;;;;4793437;55;20096;-28
2023/04/23 20:36:00;;;;;;;;;;;21.70;51.70;;;;;;4843688;55;20366;-26
2023/04/23 20:41:01;;;;;;;;;;;21.70;51.60;;;;;;4757932;55;20053;-27
2023/04/23 20:46:02;;;;;;;;;;;21.70;51.70;;;;;;4834208;55;20275;-22
2023/04/23 20:51:05;;;;;;;;;;;21.70;51.60;;;;;;4746057;58;20112;-26
2023/04/23 20:56:06;;;;;;;;;;;21.70;51.80;;;;;;4746780;58;20299;-21
2023/04/23 21:01:09;;;;;;;;;;;21.70;51.70;;;;;;4782318;55;20120;-29
2023/04/23 21:06:10;;;;;;;;;;;21.70;51.70;;;;;;4819660;55;20268;-28
2023/04/23 21:11:18;;;;;;;;;;;21.70;51.80;;;;;;4760541;55;20072;-28
2023/04/23 21:16:19;;;;;;;;;;;21.70;51.80;;;;;;4779413;55;20116;-30
2023/04/23 21:21:25;;;;;;;;;;;21.60;51.70;;;;;;4835888;55;20325;-26
2023/04/23 21:26:27;;;;;;;;;;;21.70;51.80;;;;;;4798310;55;20064;-26
2023/04/23 21:32:00;;;;;;;;;;;21.70;51.90;;;;;;4822563;55;20132;-28
2023/04/23 21:37:01;;;;;;;;;;;21.70;51.80;;;;;;4746481;58;20331;-29
2023/04/23 21:42:02;;;;;;;;;;;21.70;51.90;;;;;;4746514;58;20115;-27
2023/04/23 21:47:03;;;;;;;;;;;21.70;51.90;;;;;;4832521;55;20873;-28
2023/04/23 21:52:05;;;;;;;;;;;21.70;51.90;;;;;;4747091;55;20283;-28
2023/04/23 21:57:06;;;;;;;;;;;21.70;51.90;;;;;;4746489;58;20342;-28
2023/04/23 22:02:06;;;;;;;;;;;21.70;52.00;;;;;;4755052;55;20064;-27
2023/04/23 22:07:11;;;;;;;;;;;21.70;52.10;;;;;;4783951;55;20303;-27
2023/04/23 22:12:12;;;;;;;;;;;21.70;52.00;;;;;;4790502;55;20365;-27
2023/04/23 22:17:12;;;;;;;;;;;21.70;52.00;;;;;;4857995;55;20064;-27
2023/04/23 22:22:13;;;;;;;;;;;21.70;52.00;;;;;;4746535;58;20390;-28
2023/04/23 22:27:14;;;;;;;;;;;21.70;52.00;;;;;;4817870;55;20068;-28
2023/04/23 22:32:14;;;;;;;;;;;21.70;52.10;;;;;;4775287;55;20063;-27
2023/04/23 22:37:15;;;;;;;;;;;21.70;52.10;;;;;;4767603;55;20080;-31
2023/04/23 22:42:16;;;;;;;;;;;21.70;52.10;;;;;;4779484;55;20149;-27
2023/04/23 22:47:18;;;;;;;;;;;21.70;52.10;;;;;;5011115;55;20056;-27
2023/04/23 22:52:20;;;;;;;;;;;21.70;52.10;;;;;;4745701;56;20068;-27
2023/04/23 22:57:21;;;;;;;;;;;21.70;52.20;;;;;;4746580;58;20124;-28
2023/04/23 23:02:21;;;;;;;;;;;21.70;52.30;;;;;;4758465;55;20160;-24
2023/04/23 23:07:22;;;;;;;;;;;21.70;52.20;;;;;;4843897;55;20322;-30
2023/04/23 23:12:23;;;;;;;;;;;21.70;52.20;;;;;;4818317;55;20068;-29
2023/04/23 23:17:23;;;;;;;;;;;21.70;52.20;;;;;;4793700;55;20155;-28
2023/04/23 23:22:25;;;;;;;;;;;21.70;52.20;;;;;;4746535;58;20155;-28
2023/04/23 23:27:26;;;;;;;;;;;21.70;52.20;;;;;;4926294;55;20287;-27
2023/04/23 23:32:27;;;;;;;;;;;21.70;52.20;;;;;;4745723;58;20057;-26
2023/04/23 23:37:28;;;;;;;;;;;21.60;52.20;;;;;;4799268;55;20121;-27
2023/04/23 23:42:29;;;;;;;;;;;21.70;52.20;;;;;;4746618;58;20299;-31
2023/04/23 23:47:29;;;;;;;;;;;21.70;52.30;;;;;;4820317;55;20276;-29
2023/04/23 23:52:30;;;;;;;;;;;21.60;52.20;;;;;;4922064;55;20081;-29
2023/04/23 23:57:33;;;;;;;;;;;21.70;52.30;;;;;;4770735;55;20117;-28
